createdAt,value
2022-08-12T00:00:38.735Z,20.60
2022-08-12T00:03:30.360Z,20.65
2022-08-12T00:06:19.427Z,20.56
2022-08-12T00:09:10.435Z,20.58
2022-08-12T00:11:59.462Z,20.64
2022-08-12T00:14:49.586Z,20.53
2022-08-12T00:17:39.920Z,20.52
2022-08-12T00:20:30.293Z,20.46
2022-08-12T00:23:18.786Z,20.44
2022-08-12T00:26:23.546Z,20.44
2022-08-12T00:28:59.926Z,20.38
2022-08-12T00:31:48.742Z,20.42
2022-08-12T00:34:37.708Z,20.32
2022-08-12T00:37:26.206Z,20.34
2022-08-12T00:40:16.995Z,20.28
2022-08-12T00:42:48.639Z,20.38
2022-08-12T00:45:20.257Z,20.39
2022-08-12T00:47:52.626Z,20.35
2022-08-12T00:50:23.794Z,20.36
2022-08-12T00:52:54.357Z,20.28
2022-08-12T00:55:26.482Z,20.31
2022-08-12T00:57:57.607Z,20.20
2022-08-12T01:00:28.564Z,20.12
2022-08-12T01:03:01.581Z,20.14
2022-08-12T01:05:51.949Z,20.04
2022-08-12T01:08:29.890Z,20.00
2022-08-12T01:11:18.277Z,19.92
2022-08-12T01:13:50.795Z,19.72
2022-08-12T01:16:22.868Z,19.81
2022-08-12T01:18:56.302Z,19.82
2022-08-12T01:21:33.532Z,19.84
2022-08-12T01:24:31.340Z,19.87
2022-08-12T01:26:58.940Z,19.83
2022-08-12T01:29:32.940Z,19.77
2022-08-12T01:32:08.814Z,19.79
2022-08-12T01:34:42.536Z,19.79
2022-08-12T01:37:15.964Z,19.67
2022-08-12T01:40:33.262Z,19.76
2022-08-12T01:42:28.995Z,19.74
2022-08-12T01:45:01.303Z,19.73
2022-08-12T01:47:44.020Z,19.82
2022-08-12T01:50:21.325Z,19.65
2022-08-12T01:53:08.228Z,19.62
2022-08-12T01:55:42.159Z,19.64
2022-08-12T01:58:32.581Z,19.61
2022-08-12T02:01:09.935Z,19.64
2022-08-12T02:04:04.198Z,19.56
2022-08-12T02:07:01.581Z,19.64
2022-08-12T02:10:00.242Z,19.57
2022-08-12T02:12:57.348Z,19.70
2022-08-12T02:15:33.529Z,19.64
2022-08-12T02:18:24.901Z,19.65
2022-08-12T02:21:05.060Z,19.64
2022-08-12T02:23:37.797Z,19.64
2022-08-12T02:26:10.931Z,19.64
2022-08-12T02:28:41.746Z,19.68
2022-08-12T02:31:14.797Z,19.65
2022-08-12T02:33:47.507Z,19.57
2022-08-12T02:36:18.997Z,19.52
2022-08-12T02:38:53.021Z,19.54
2022-08-12T02:41:28.097Z,19.56
2022-08-12T02:44:00.956Z,19.50
2022-08-12T02:46:34.235Z,19.47
2022-08-12T02:49:25.478Z,19.43
2022-08-12T02:51:56.579Z,19.50
2022-08-12T02:54:27.687Z,19.38
2022-08-12T02:56:59.061Z,19.38
2022-08-12T02:59:30.682Z,19.34
2022-08-12T03:02:05.988Z,19.40
2022-08-12T03:04:43.689Z,19.31
2022-08-12T03:07:14.836Z,19.24
2022-08-12T03:10:05.442Z,19.06
2022-08-12T03:12:49.166Z,18.95
2022-08-12T03:15:22.222Z,18.90
2022-08-12T03:18:25.702Z,18.86
2022-08-12T03:20:30.656Z,18.95
2022-08-12T03:23:02.953Z,18.74
2022-08-12T03:25:37.417Z,18.94
2022-08-12T03:28:11.329Z,19.00
2022-08-12T03:30:44.319Z,19.02
2022-08-12T03:33:17.100Z,19.04
2022-08-12T03:35:49.602Z,18.96
2022-08-12T03:38:23.402Z,18.88
2022-08-12T03:41:17.355Z,18.84
2022-08-12T03:44:26.033Z,18.87
2022-08-12T03:47:23.210Z,19.03
2022-08-12T03:50:13.279Z,18.95
2022-08-12T03:53:02.185Z,18.90
2022-08-12T03:55:53.117Z,18.87
2022-08-12T03:58:42.148Z,18.86
2022-08-12T04:01:13.152Z,19.01
2022-08-12T04:03:52.665Z,19.06
2022-08-12T04:06:34.958Z,19.01
2022-08-12T04:09:01.221Z,19.08
2022-08-12T04:11:50.511Z,19.08
2022-08-12T04:14:23.330Z,19.09
2022-08-12T04:16:54.538Z,19.02
2022-08-12T04:19:28.262Z,19.06
2022-08-12T04:22:02.243Z,19.05
2022-08-12T04:24:36.415Z,19.04
2022-08-12T04:27:09.898Z,19.20
2022-08-12T04:30:30.649Z,19.03
2022-08-12T04:32:15.476Z,19.01
2022-08-12T04:34:46.521Z,19.06
2022-08-12T04:37:17.067Z,19.05
2022-08-12T04:39:49.356Z,19.20
2022-08-12T04:42:20.392Z,19.32
2022-08-12T04:44:50.923Z,19.48
2022-08-12T04:47:22.300Z,19.33
2022-08-12T04:49:52.757Z,19.36
2022-08-12T04:52:25.901Z,19.35
2022-08-12T04:54:57.199Z,19.36
2022-08-12T04:57:27.723Z,19.46
2022-08-12T04:59:58.680Z,19.48
2022-08-12T05:02:29.305Z,19.54
2022-08-12T05:05:01.437Z,19.71
2022-08-12T05:07:33.466Z,19.74
2022-08-12T05:10:05.221Z,20.18
2022-08-12T05:12:42.425Z,22.09
2022-08-12T05:15:27.660Z,24.23
2022-08-12T05:17:48.647Z,26.75
2022-08-12T05:20:20.749Z,28.31
2022-08-12T05:22:53.058Z,28.27
2022-08-12T05:25:23.664Z,27.30
2022-08-12T05:27:57.910Z,29.00
2022-08-12T05:30:26.834Z,28.73
2022-08-12T05:33:00.200Z,29.82
2022-08-12T05:35:30.932Z,29.20
2022-08-12T05:38:19.441Z,31.08
2022-08-12T05:40:51.259Z,30.38
2022-08-12T05:43:23.863Z,29.18
2022-08-12T05:45:54.780Z,29.22
2022-08-12T05:48:25.500Z,28.13
2022-08-12T05:50:56.851Z,28.06
2022-08-12T05:53:27.261Z,27.02
2022-08-12T05:55:58.053Z,28.38
2022-08-12T05:58:28.583Z,29.31
2022-08-12T06:00:59.807Z,29.44
2022-08-12T06:03:31.920Z,30.43
2022-08-12T06:06:04.103Z,29.31
2022-08-12T06:08:36.331Z,30.89
2022-08-12T06:11:07.811Z,32.14
2022-08-12T06:13:54.339Z,30.82
2022-08-12T06:16:12.861Z,29.98
2022-08-12T06:18:44.254Z,29.16
2022-08-12T06:21:17.116Z,28.83
2022-08-12T06:23:47.997Z,29.15
2022-08-12T06:26:20.371Z,29.83
2022-08-12T06:28:51.814Z,30.18
2022-08-12T06:31:26.100Z,29.98
2022-08-12T06:34:00.662Z,28.95
2022-08-12T06:36:29.975Z,28.78
2022-08-12T06:38:59.584Z,27.81
2022-08-12T06:42:02.463Z,27.60
2022-08-12T06:44:21.062Z,25.91
2022-08-12T06:46:52.581Z,25.34
2022-08-12T06:49:23.417Z,24.94
2022-08-12T06:51:56.733Z,24.52
2022-08-12T06:54:31.958Z,24.00
2022-08-12T06:57:57.460Z,23.72
2022-08-12T06:59:34.981Z,23.78
2022-08-12T07:02:05.528Z,23.48
2022-08-12T07:04:39.043Z,23.64
2022-08-12T07:07:10.749Z,23.85
2022-08-12T07:10:03.956Z,23.91
2022-08-12T07:12:16.358Z,24.10
2022-08-12T07:14:52.663Z,23.96
2022-08-12T07:17:23.185Z,23.81
2022-08-12T07:19:58.038Z,23.89
2022-08-12T07:22:27.305Z,23.75
2022-08-12T07:25:08.315Z,24.17
2022-08-12T07:27:40.760Z,24.13
2022-08-12T07:30:12.048Z,24.24
2022-08-12T07:32:42.545Z,24.18
2022-08-12T07:35:13.068Z,24.32
2022-08-12T07:37:44.253Z,24.28
2022-08-12T07:40:15.478Z,24.32
2022-08-12T07:42:47.173Z,24.32
2022-08-12T07:45:19.583Z,24.40
2022-08-12T07:47:51.207Z,24.47
2022-08-12T07:50:23.897Z,24.28
2022-08-12T07:52:54.007Z,24.50
2022-08-12T07:55:24.534Z,24.70
2022-08-12T07:57:59.256Z,24.69
2022-08-12T08:00:35.164Z,24.73
2022-08-12T08:03:05.588Z,24.65
2022-08-12T08:05:41.495Z,24.61
2022-08-12T08:08:17.296Z,24.59
2022-08-12T08:10:49.501Z,24.71
2022-08-12T08:13:20.550Z,24.82
2022-08-12T08:16:03.111Z,25.01
2022-08-12T08:18:27.486Z,25.04
2022-08-12T08:20:57.930Z,24.96
2022-08-12T08:23:35.127Z,25.01
2022-08-12T08:26:02.274Z,25.04
2022-08-12T08:28:34.336Z,24.96
2022-08-12T08:31:04.898Z,24.94
2022-08-12T08:34:05.157Z,24.93
2022-08-12T08:36:23.605Z,24.94
2022-08-12T08:38:53.301Z,25.31
2022-08-12T08:42:19.187Z,25.48
2022-08-12T08:44:07.666Z,25.31
2022-08-12T08:46:38.422Z,25.32
2022-08-12T08:49:09.025Z,25.03
2022-08-12T08:51:40.061Z,25.16
2022-08-12T08:54:13.596Z,25.30
2022-08-12T08:56:45.425Z,25.59
2022-08-12T08:59:17.453Z,25.76
2022-08-12T09:01:48.774Z,25.79
2022-08-12T09:05:12.700Z,25.66
2022-08-12T09:06:55.981Z,25.92
2022-08-12T09:09:34.049Z,25.76
2022-08-12T09:12:27.432Z,25.88
2022-08-12T09:14:51.221Z,26.03
2022-08-12T09:17:22.562Z,26.29
2022-08-12T09:19:58.071Z,26.19
2022-08-12T09:24:59.847Z,26.28
2022-08-12T09:28:15.869Z,26.12
2022-08-12T09:30:08.663Z,26.35
2022-08-12T09:33:04.947Z,26.29
2022-08-12T09:35:18.475Z,26.24
2022-08-12T09:37:57.713Z,26.35
2022-08-12T09:40:58.040Z,26.17
2022-08-12T09:43:16.772Z,26.34
2022-08-12T09:46:11.635Z,26.14
2022-08-12T09:48:19.960Z,26.19
2022-08-12T09:50:51.515Z,26.55
2022-08-12T09:53:36.306Z,26.56
2022-08-12T09:56:06.595Z,26.32
2022-08-12T09:58:56.870Z,26.52
2022-08-12T10:01:15.135Z,26.56
2022-08-12T10:04:03.136Z,26.65
2022-08-12T10:06:27.536Z,26.38
2022-08-12T10:08:44.887Z,26.28
2022-08-12T10:11:21.215Z,26.71
2022-08-12T10:13:53.890Z,26.74
2022-08-12T10:16:29.258Z,26.57
2022-08-12T10:19:02.516Z,26.48
2022-08-12T10:21:41.366Z,26.68
2022-08-12T10:24:20.024Z,26.54
2022-08-12T10:27:07.303Z,26.50
2022-08-12T10:30:37.614Z,26.38
2022-08-12T10:32:21.244Z,26.82
2022-08-12T10:34:53.779Z,26.87
2022-08-12T10:38:35.547Z,26.99
2022-08-12T10:40:00.943Z,27.23
2022-08-12T10:42:46.176Z,26.96
2022-08-12T10:45:18.340Z,27.10
2022-08-12T10:48:14.949Z,27.27
2022-08-12T10:50:28.107Z,27.18
2022-08-12T10:52:54.501Z,27.36
2022-08-12T10:55:26.168Z,27.49
2022-08-12T10:58:14.810Z,27.76
2022-08-12T11:00:45.340Z,27.85
2022-08-12T11:04:26.955Z,27.41
2022-08-12T11:07:03.666Z,27.30
2022-08-12T11:08:37.662Z,27.23
2022-08-12T11:10:45.751Z,27.28
2022-08-12T11:13:16.924Z,27.14
2022-08-12T11:16:03.541Z,27.04
2022-08-12T11:18:20.278Z,27.09
2022-08-12T11:20:54.023Z,27.05
2022-08-12T11:23:36.838Z,27.06
2022-08-12T11:26:04.967Z,27.42
2022-08-12T11:28:33.948Z,27.52
2022-08-12T11:31:06.070Z,27.64
2022-08-12T11:34:04.971Z,27.74
2022-08-12T11:36:15.354Z,28.13
2022-08-12T11:38:50.275Z,28.07
2022-08-12T11:41:27.985Z,28.08
2022-08-12T11:43:58.916Z,28.35
2022-08-12T11:46:25.498Z,28.46
2022-08-12T11:48:55.922Z,28.22
2022-08-12T11:51:27.411Z,28.01
2022-08-12T11:54:01.416Z,28.55
2022-08-12T11:56:38.550Z,28.69
2022-08-12T12:02:02.558Z,28.18
2022-08-12T12:04:10.428Z,28.34
2022-08-12T12:06:41.368Z,28.64
2022-08-12T12:09:13.111Z,28.25
2022-08-12T12:11:49.305Z,28.54
2022-08-12T12:14:17.731Z,28.41
2022-08-12T12:16:50.870Z,28.28
2022-08-12T12:19:20.474Z,28.46
2022-08-12T12:21:51.015Z,28.40
2022-08-12T12:24:22.473Z,28.02
2022-08-12T12:27:00.893Z,28.38
2022-08-12T12:30:18.915Z,28.32
2022-08-12T12:32:11.071Z,28.97
2022-08-12T12:34:30.418Z,28.79
2022-08-12T12:37:01.339Z,29.16
2022-08-12T12:39:50.169Z,28.48
2022-08-12T12:42:42.692Z,28.47
2022-08-12T12:44:42.199Z,29.09
2022-08-12T12:47:28.856Z,29.01
2022-08-12T12:49:43.788Z,29.80
2022-08-12T12:52:19.646Z,29.66
2022-08-12T12:54:48.066Z,29.11
2022-08-12T12:57:21.412Z,28.62
2022-08-12T13:00:09.165Z,28.60
2022-08-12T13:02:44.813Z,28.41
2022-08-12T13:05:16.899Z,28.70
2022-08-12T13:07:55.118Z,28.36
2022-08-12T13:10:24.058Z,28.47
2022-08-12T13:12:56.361Z,28.52
2022-08-12T13:15:45.309Z,28.60
2022-08-12T13:18:04.902Z,29.26
2022-08-12T13:20:38.008Z,29.27
2022-08-12T13:23:36.207Z,29.29
2022-08-12T13:25:41.636Z,29.92
2022-08-12T13:28:28.446Z,29.10
2022-08-12T13:30:59.354Z,28.72
2022-08-12T13:34:32.348Z,29.09
2022-08-12T13:36:10.332Z,29.18
2022-08-12T13:38:43.736Z,29.88
2022-08-12T13:41:35.603Z,28.76
2022-08-12T13:44:11.515Z,29.22
2022-08-12T13:46:58.719Z,28.77
2022-08-12T13:49:54.044Z,29.13
2022-08-12T13:51:52.965Z,29.25
2022-08-12T13:54:25.473Z,28.94
2022-08-12T13:56:56.992Z,28.46
2022-08-12T13:59:28.233Z,28.67
2022-08-12T14:01:59.515Z,28.16
2022-08-12T14:04:32.356Z,28.07
2022-08-12T14:07:05.406Z,28.48
2022-08-12T14:09:37.768Z,28.78
2022-08-12T14:12:09.301Z,28.62
2022-08-12T14:14:42.024Z,28.66
2022-08-12T14:17:13.474Z,28.31
2022-08-12T14:20:04.679Z,28.96
2022-08-12T14:22:35.380Z,29.15
2022-08-12T14:25:07.702Z,29.67
2022-08-12T14:28:06.076Z,29.16
2022-08-12T14:30:17.165Z,29.27
2022-08-12T14:32:45.301Z,29.07
2022-08-12T14:35:15.895Z,28.94
2022-08-12T14:37:55.280Z,28.64
2022-08-12T14:40:23.398Z,28.94
2022-08-12T14:42:50.435Z,28.80
2022-08-12T14:45:23.024Z,29.12
2022-08-12T14:47:58.745Z,29.05
2022-08-12T14:50:58.521Z,28.90
2022-08-12T14:58:07.016Z,29.05
2022-08-12T15:00:57.212Z,28.96
2022-08-12T15:03:52.528Z,29.05
2022-08-12T15:06:06.459Z,29.07
2022-08-12T15:08:39.951Z,28.44
2022-08-12T15:11:15.917Z,28.19
2022-08-12T15:13:49.828Z,28.07
2022-08-12T15:16:20.618Z,27.97
2022-08-12T15:18:55.184Z,27.92
2022-08-12T15:21:25.236Z,27.84
2022-08-12T15:23:57.560Z,27.78
2022-08-12T15:26:35.758Z,27.91
2022-08-12T15:29:01.507Z,28.02
2022-08-12T15:31:59.528Z,28.18
2022-08-12T15:34:06.839Z,28.24
2022-08-12T15:36:55.162Z,28.05
2022-08-12T15:39:17.109Z,27.93
2022-08-12T15:41:50.299Z,28.01
2022-08-12T15:44:36.856Z,28.19
2022-08-12T15:46:47.941Z,28.38
2022-08-12T15:49:20.103Z,28.46
2022-08-12T15:51:58.724Z,28.36
2022-08-12T15:54:33.352Z,28.30
2022-08-12T15:56:57.854Z,28.20
2022-08-12T15:59:42.447Z,28.25
2022-08-12T16:02:01.410Z,28.14
2022-08-12T16:04:32.961Z,28.21
2022-08-12T16:07:05.469Z,28.21
2022-08-12T16:09:56.465Z,28.40
2022-08-12T16:12:08.689Z,28.46
2022-08-12T16:14:40.878Z,28.54
2022-08-12T16:17:15.629Z,28.40
2022-08-12T16:20:04.309Z,28.16
2022-08-12T16:22:16.230Z,28.14
2022-08-12T16:24:47.092Z,28.07
2022-08-12T16:27:19.232Z,27.80
2022-08-12T16:29:53.146Z,28.00
2022-08-12T16:32:31.569Z,28.05
2022-08-12T16:34:58.659Z,28.04
2022-08-12T16:38:28.015Z,28.06
2022-08-12T16:40:09.349Z,27.92
2022-08-12T16:42:42.224Z,27.88
2022-08-12T16:45:14.275Z,27.66
2022-08-12T16:47:58.860Z,27.70
2022-08-12T16:50:20.188Z,27.82
2022-08-12T16:52:51.855Z,27.76
2022-08-12T16:55:25.610Z,27.80
2022-08-12T16:57:56.496Z,27.80
2022-08-12T17:00:27.295Z,27.80
2022-08-12T17:02:59.483Z,27.78
2022-08-12T17:05:32.723Z,27.69
2022-08-12T17:08:07.883Z,27.63
2022-08-12T17:10:40.362Z,27.54
2022-08-12T17:13:13.811Z,27.65
2022-08-12T17:15:51.121Z,27.72
2022-08-12T17:18:44.241Z,27.80
2022-08-12T17:20:50.508Z,27.88
2022-08-12T17:23:23.380Z,27.92
2022-08-12T17:25:54.406Z,27.96
2022-08-12T17:28:25.211Z,27.82
2022-08-12T17:30:59.654Z,27.65
2022-08-12T17:33:33.690Z,27.58
2022-08-12T17:36:03.131Z,27.76
2022-08-12T17:38:36.682Z,27.79
2022-08-12T17:41:22.398Z,27.51
2022-08-12T17:43:57.238Z,27.64
2022-08-12T17:46:23.829Z,27.52
2022-08-12T17:48:55.554Z,27.39
2022-08-12T17:51:24.968Z,27.38
2022-08-12T17:54:12.499Z,27.41
2022-08-12T17:56:31.926Z,27.23
2022-08-12T17:59:03.288Z,27.18
2022-08-12T18:01:37.445Z,27.11
2022-08-12T18:04:21.328Z,27.05
2022-08-12T18:06:41.161Z,26.98
2022-08-12T18:09:15.828Z,26.94
2022-08-12T18:12:08.354Z,26.88
2022-08-12T18:14:41.236Z,26.85
2022-08-12T18:17:12.304Z,26.87
2022-08-12T18:20:04.951Z,26.72
2022-08-12T18:22:17.518Z,26.72
2022-08-12T18:24:48.796Z,26.70
2022-08-12T18:27:29.928Z,26.70
2022-08-12T18:29:55.503Z,26.63
2022-08-12T18:32:53.876Z,26.57
2022-08-12T18:35:01.149Z,26.51
2022-08-12T18:37:42.278Z,26.44
2022-08-12T18:40:23.775Z,26.46
2022-08-12T18:42:54.723Z,26.37
2022-08-12T18:45:31.621Z,26.38
2022-08-12T18:48:03.595Z,26.36
2022-08-12T18:50:49.400Z,26.33
2022-08-12T18:53:16.761Z,26.20
2022-08-12T18:55:59.412Z,26.19
2022-08-12T18:58:20.470Z,26.16
2022-08-12T19:00:51.686Z,26.17
2022-08-12T19:03:39.886Z,26.04
2022-08-12T19:05:57.392Z,26.04
2022-08-12T19:08:29.992Z,25.95
2022-08-12T19:11:19.257Z,25.98
2022-08-12T19:16:59.090Z,25.77
2022-08-12T19:19:37.347Z,25.69
2022-08-12T19:22:05.197Z,25.62
2022-08-12T19:24:54.373Z,25.64
2022-08-12T19:27:27.007Z,25.44
2022-08-12T19:30:04.842Z,25.47
2022-08-12T19:32:33.769Z,25.47
2022-08-12T19:36:06.476Z,25.38
2022-08-12T19:38:04.570Z,25.25
2022-08-12T19:40:31.628Z,25.17
2022-08-12T19:42:53.356Z,25.20
2022-08-12T19:45:23.850Z,25.06
2022-08-12T19:47:57.556Z,25.00
2022-08-12T19:50:29.800Z,25.06
2022-08-12T19:53:03.628Z,25.02
2022-08-12T19:55:38.798Z,25.15
2022-08-12T19:58:17.934Z,25.17
2022-08-12T20:00:52.070Z,24.97
2022-08-12T20:03:39.459Z,24.88
2022-08-12T20:06:05.125Z,25.18
2022-08-12T20:08:34.047Z,24.90
2022-08-12T20:12:13.711Z,24.88
2022-08-12T20:13:38.518Z,24.93
2022-08-12T20:16:38.527Z,24.86
2022-08-12T20:18:57.076Z,24.88
2022-08-12T20:21:24.263Z,24.92
2022-08-12T20:24:00.423Z,24.94
2022-08-12T20:26:25.190Z,24.98
2022-08-12T20:28:57.487Z,24.86
2022-08-12T20:31:31.489Z,24.88
2022-08-12T20:34:04.187Z,24.84
2022-08-12T20:36:41.169Z,24.76
2022-08-12T20:39:34.340Z,24.70
2022-08-12T20:41:39.859Z,24.72
2022-08-12T20:44:17.178Z,24.68
2022-08-12T20:46:46.032Z,24.62
2022-08-12T20:49:17.810Z,24.57
2022-08-12T20:51:55.240Z,24.57
2022-08-12T20:54:22.777Z,24.57
2022-08-12T20:56:53.338Z,24.45
2022-08-12T20:59:26.097Z,24.39
2022-08-12T21:01:58.479Z,24.22
2022-08-12T21:04:49.290Z,24.21
2022-08-12T21:07:23.673Z,24.18
2022-08-12T21:09:53.716Z,24.12
2022-08-12T21:12:31.408Z,24.17
2022-08-12T21:15:23.217Z,24.18
2022-08-12T21:18:00.686Z,24.12
2022-08-12T21:20:15.801Z,24.14
2022-08-12T21:22:47.233Z,24.04
2022-08-12T21:25:18.909Z,24.09
2022-08-12T21:27:58.540Z,24.09
2022-08-12T21:30:27.460Z,23.97
2022-08-12T21:32:56.045Z,23.86
2022-08-12T21:35:28.065Z,23.82
2022-08-12T21:37:59.081Z,23.69
2022-08-12T21:40:37.699Z,23.62
2022-08-12T21:43:05.412Z,23.59
2022-08-12T21:45:46.782Z,23.48
2022-08-12T21:48:13.493Z,23.49
2022-08-12T21:50:51.278Z,23.30
2022-08-12T21:54:05.800Z,23.19
2022-08-12T21:55:57.884Z,23.16
2022-08-12T21:58:29.859Z,23.12
2022-08-12T22:01:01.311Z,23.02
2022-08-12T22:04:10.745Z,23.00
2022-08-12T22:06:40.629Z,22.95
2022-08-12T22:09:06.710Z,22.91
2022-08-12T22:11:42.394Z,22.90
2022-08-12T22:14:18.029Z,22.78
2022-08-12T22:16:46.773Z,22.74
2022-08-12T22:19:19.790Z,22.74
2022-08-12T22:21:54.778Z,22.64
2022-08-12T22:24:30.326Z,22.71
2022-08-12T22:27:14.464Z,22.65
2022-08-12T22:29:54.142Z,22.74
2022-08-12T22:32:26.266Z,22.66
2022-08-12T22:35:23.091Z,22.63
2022-08-12T22:37:47.182Z,22.60
2022-08-12T22:40:17.596Z,22.50
2022-08-12T22:43:07.009Z,22.48
2022-08-12T22:45:59.132Z,22.45
2022-08-12T22:48:30.758Z,22.38
2022-08-12T22:51:01.258Z,22.32
2022-08-12T22:53:36.254Z,22.29
2022-08-12T22:56:07.158Z,22.26
2022-08-12T22:58:40.383Z,22.20
2022-08-12T23:01:11.480Z,22.21
2022-08-12T23:03:48.962Z,22.32
2022-08-12T23:06:16.683Z,22.20
2022-08-12T23:08:47.960Z,22.26
2022-08-12T23:11:23.986Z,22.10
2022-08-12T23:13:56.274Z,22.06
2022-08-12T23:16:33.447Z,21.98
2022-08-12T23:19:22.866Z,21.82
2022-08-12T23:22:04.551Z,21.83
2022-08-12T23:24:20.481Z,21.88
2022-08-12T23:27:10.428Z,21.80
2022-08-12T23:29:43.452Z,21.70
2022-08-12T23:32:22.519Z,21.59
2022-08-12T23:34:47.810Z,21.53
2022-08-12T23:37:18.945Z,21.62
2022-08-12T23:40:13.371Z,21.50
2022-08-12T23:42:30.986Z,21.56
2022-08-12T23:44:57.733Z,21.42
2022-08-12T23:47:28.492Z,21.48
2022-08-12T23:50:03.155Z,21.51
2022-08-12T23:52:34.945Z,21.43
2022-08-12T23:55:24.003Z,21.50
2022-08-12T23:58:18.275Z,21.43
